Latest Weather Observations for Port Augusta

IDS60801

Issued at 7:01 pm CST Saturday 1 August 2015 (issued every 30 minutes, with the page automatically refreshed every 10 minutes)

About weather observations | Map of weather stations | Latest weather observations for SA | Other Formats
Station Details ID: 018201 Name: PORT AUGUSTA AERO Lat: -32.51 Lon: 137.72 Height: 13.97 m
Data from the previous 72 hours. | See also: Recent months at Port Augusta
Date/Time
CST
Temp
°C
App
Temp
°C
Dew
Point
Rel
Hum
%
Delta-T
°C
Wind Press
QNH
hPa
Press
MSL
hPa
Rain
since 9 am
mm
Dir
 
Spd
km/h
Gust
km/h
Spd
kts
Gust
kts
01/07:00pm 13.0 5.3 8.5 74 2.2 SSE 39 52 21 28 1014.0 - 0.0
01/06:30pm 13.1 5.8 8.6 74 2.2 SSE 37 46 20 25 1014.2 - 0.0
01/06:00pm 13.6 6.9 8.0 69 2.8 SSE 33 46 18 25 1013.8 1013.7 0.0
01/05:30pm 13.9 6.3 9.1 73 2.4 SSE 39 54 21 29 1013.2 - 0.0
01/05:00pm 14.4 6.6 8.4 67 3.0 SSE 39 54 21 29 1013.4 - 0.0
01/04:30pm 15.3 6.9 7.3 59 4.0 SSE 41 54 22 29 1013.1 - 0.0
01/04:00pm 16.0 7.4 6.7 54 4.6 SSE 41 57 22 31 1013.1 - 0.0
01/03:30pm 15.3 8.0 8.8 65 3.3 SSE 37 50 20 27 1013.0 - 0.0
01/03:00pm 14.7 6.7 10.5 76 2.2 SSE 43 54 23 29 1013.4 1013.3 0.0
01/02:30pm 14.4 6.3 10.2 76 2.2 SE 43 61 23 33 1013.3 - 0.0
01/02:23pm 14.8 7.1 10.2 74 2.4 SE 41 61 22 33 1013.4 - 0.0
01/02:00pm 15.5 8.2 10.3 71 2.7 SSE 39 52 21 28 1014.4 - 0.0
01/01:30pm 14.6 7.8 10.6 77 2.1 SSE 37 46 20 25 1014.4 - 0.0
01/01:00pm 14.5 8.0 10.3 76 2.2 SE 35 44 19 24 1014.9 - 0.0
01/12:30pm 15.3 9.8 10.7 74 2.4 SSE 30 39 16 21 1014.8 - 0.0
01/12:00pm 14.6 8.5 9.8 73 2.5 SSE 32 43 17 23 1016.3 1016.2 0.0
01/11:30am 14.1 7.8 9.7 75 2.3 SSE 33 46 18 25 1015.8 - 0.0
01/11:00am 14.6 8.7 10.6 77 2.1 SE 32 44 17 24 1016.1 - 0.0
01/10:30am 14.9 10.5 10.5 75 2.3 SE 24 33 13 18 1016.8 - 0.0
01/10:00am 17.8 15.4 0.0 30 7.7 S 2 7 1 4 1016.2 - 0.0
01/09:30am 17.2 13.3 1.2 34 7.1 SW 11 13 6 7 1016.5 - 0.0
01/09:00am 16.3 11.8 2.0 38 6.4 WSW 15 20 8 11 1015.9 1015.8 0.2
01/08:30am 14.2 11.6 6.3 59 3.8 SW 9 13 5 7 1015.0 - 0.2
01/08:00am 12.5 9.6 6.5 67 2.9 SW 11 17 6 9 1015.2 - 0.2
01/07:30am 11.4 9.2 6.3 71 2.4 SSW 7 9 4 5 1014.9 - 0.2
01/07:00am 11.5 9.2 5.8 68 2.7 NE 7 11 4 6 1015.1 - 0.2
01/06:30am 12.4 8.8 4.9 60 3.4 E 13 15 7 8 1014.9 - 0.2
01/06:00am 12.5 10.1 5.4 62 3.3 NE 7 9 4 5 1014.8 1014.7 0.2
01/05:30am 13.5 11.0 3.8 52 4.4 NNE 6 9 3 5 1014.7 - 0.2
01/05:00am 12.9 10.3 4.3 56 3.9 SSE 7 9 4 5 1015.1 - 0.2
01/04:30am 13.6 9.4 3.7 51 4.5 W 15 22 8 12 1015.2 - 0.2
01/04:00am 11.9 9.9 7.0 72 2.3 WNW 7 9 4 5 1014.2 - 0.2
01/03:30am 12.3 9.3 5.9 65 3.0 W 11 13 6 7 1014.7 - 0.2
01/03:00am 13.7 10.3 6.1 60 3.6 W 13 17 7 9 1014.9 1014.8 0.2
01/02:30am 14.1 9.6 6.0 58 3.9 WSW 19 20 10 11 1015.5 - 0.2
01/02:00am 14.0 11.5 6.6 61 3.6 W 9 13 5 7 1014.5 - 0.2
01/01:30am 13.4 12.0 9.5 77 2.0 W 7 11 4 6 1014.4 - 0.2
01/01:00am 13.0 12.0 10.4 84 1.3 W 6 7 3 4 1014.7 - 0.2
01/12:30am 12.8 12.9 10.3 85 1.3 CALM 0 0 0 0 1014.9 - 0.2
01/12:00am 13.6 12.9 10.2 80 1.8 NE 4 6 2 3 1015.3 1015.2 0.2
 
Date/Time
CST
Temp
°C
App
Temp
°C
Dew
Point
Rel
Hum
%
Delta-T
°C
Wind Press
QNH
hPa
Press
MSL
hPa
Rain
since 9 am
mm
Dir
 
Spd
km/h
Gust
km/h
Spd
kts
Gust
kts
31/11:30pm 13.4 13.1 10.0 80 1.8 NNE 2 7 1 4 1015.3 - 0.0
31/11:00pm 13.6 13.8 10.6 82 1.6 CALM 0 0 0 0 1015.5 - 0.0
31/10:30pm 13.6 12.4 10.2 80 1.8 NE 7 9 4 5 1015.7 - 0.0
31/10:00pm 14.0 12.5 10.4 79 1.9 SW 9 11 5 6 1015.7 - 0.0
31/09:30pm 13.7 11.9 10.7 82 1.6 SSW 11 15 6 8 1016.1 - 0.0
31/09:00pm 13.3 12.8 10.7 84 1.4 S 4 9 2 5 1015.9 1015.8 0.0
31/08:30pm 13.7 12.7 10.3 80 1.8 WSW 6 7 3 4 1015.7 - 0.0
31/08:00pm 14.4 12.4 10.2 76 2.2 WNW 11 13 6 7 1016.4 - 0.0
31/07:30pm 14.5 13.6 10.5 77 2.1 W 6 9 3 5 1016.1 - 0.0
31/07:00pm 14.7 13.6 10.7 77 2.1 W 7 9 4 5 1016.4 - 0.0
31/06:30pm 15.5 14.3 10.3 71 2.7 NNW 7 9 4 5 1016.5 - 0.0
31/06:00pm 16.5 13.6 6.6 52 4.9 NNW 11 13 6 7 1016.5 1016.4 0.0
31/05:30pm 17.3 13.5 5.6 46 5.7 N 15 20 8 11 1016.1 - 0.0
31/05:00pm 17.7 13.1 5.6 45 5.9 N 19 24 10 13 1015.8 - 0.0
31/04:30pm 18.3 13.5 5.8 44 6.1 N 20 26 11 14 1015.8 - 0.0
31/04:00pm 18.7 14.9 8.9 53 5.1 N 19 22 10 12 1016.2 - 0.0
31/03:30pm 20.3 15.1 5.5 38 7.3 NNW 22 28 12 15 1016.2 - 0.0
31/03:00pm 21.4 16.1 4.9 34 8.1 NNW 22 30 12 16 1016.3 1016.2 0.0
31/02:30pm 21.1 15.7 4.6 34 8.0 N 22 32 12 17 1016.8 - 0.0
31/02:00pm 20.6 15.3 5.0 36 7.6 N 22 30 12 16 1017.2 - 0.0
31/01:30pm 20.1 15.6 6.8 42 6.7 N 20 28 11 15 1017.7 - 0.0
31/01:00pm 18.8 13.2 5.6 42 6.5 N 24 32 13 17 1018.7 - 0.0
31/12:30pm 17.9 13.3 6.4 47 5.7 N 20 28 11 15 1019.7 - 0.0
31/12:00pm 17.5 14.2 8.1 54 4.8 N 15 24 8 13 1020.6 1020.5 0.0
31/11:30am 15.5 13.2 10.3 71 2.7 N 13 17 7 9 1021.0 - 0.0
31/11:00am 15.0 13.3 10.0 72 2.6 NNW 9 11 5 6 1021.2 - 0.0
31/10:30am 12.8 12.7 12.2 96 0.3 SSW 4 7 2 4 1021.7 - 0.0
31/10:28am 12.7 12.6 12.1 96 0.3 ESE 4 7 2 4 1021.7 - 0.0
31/10:19am 12.1 12.3 11.8 98 0.2 NW 2 6 1 3 1021.7 - 0.0
31/10:03am 10.8 10.2 10.5 98 0.2 WNW 4 7 2 4 1021.9 - 0.0
31/10:00am 10.9 10.4 10.6 98 0.2 W 4 7 2 4 1021.9 - 0.0
31/09:30am 10.2 10.2 9.9 98 0.2 CALM 0 - 0 - 1022.1 - 0.0
31/09:00am 9.9 9.8 9.6 98 0.1 CALM 0 - 0 - 1022.0 1021.9 0.0
31/08:30am 9.5 8.2 9.2 98 0.1 W 6 7 3 4 1022.1 - 0.0
31/08:00am 9.3 7.9 9.0 98 0.1 WSW 6 7 3 4 1022.0 - 0.0
31/07:30am 9.9 8.1 9.6 98 0.1 SSE 9 11 5 6 1021.8 - 0.0
31/07:00am 10.2 8.5 9.9 98 0.2 SSE 9 13 5 7 1021.6 - 0.0
31/06:52am 10.2 8.5 9.9 98 0.2 SSE 9 11 5 6 1021.5 - 0.0
31/06:51am 10.2 8.5 9.9 98 0.2 SSE 9 11 5 6 1021.5 - 0.0
31/06:30am 10.2 8.1 9.7 97 0.3 SSE 11 15 6 8 1021.5 - 0.0
31/06:00am 10.1 8.0 9.6 97 0.2 SSE 11 15 6 8 1021.4 1021.3 0.0
31/05:41am 9.2 7.6 8.7 97 0.2 SSW 7 13 4 7 1021.4 - 0.0
31/05:30am 9.0 7.3 8.5 97 0.2 S 7 11 4 6 1021.6 - 0.0
31/05:29am 9.1 7.5 8.6 97 0.2 SSE 7 11 4 6 1021.6 - 0.0
31/05:24am 9.4 7.5 8.9 97 0.2 SSE 9 11 5 6 1021.6 - 0.0
31/05:12am 9.2 7.6 8.7 97 0.2 SSE 7 9 4 5 1021.6 - 0.0
31/05:00am 8.9 7.2 8.5 97 0.2 SSE 7 9 4 5 1021.7 - 0.0
31/04:36am 7.6 5.2 7.2 97 0.2 S 9 11 5 6 1021.6 - 0.0
31/04:30am 7.0 4.5 6.4 96 0.3 S 9 11 5 6 1021.5 - 0.0
31/04:18am 6.0 3.8 5.4 96 0.3 ESE 6 7 3 4 1021.5 - 0.0
31/04:15am 5.7 3.3 5.1 96 0.3 E 7 7 4 4 1021.5 - 0.0
31/04:14am 5.8 3.4 5.2 96 0.3 E 7 7 4 4 1021.5 - 0.0
31/04:13am 6.0 3.6 5.4 96 0.3 E 7 7 4 4 1021.5 - 0.0
31/04:12am 6.0 3.8 5.4 96 0.3 E 6 7 3 4 1021.5 - 0.0
31/04:01am 6.0 4.2 5.3 95 0.3 E 4 7 2 4 1021.5 - 0.0
31/04:00am 6.1 4.3 5.4 95 0.3 ESE 4 7 2 4 1021.5 - 0.0
31/03:52am 6.7 5.0 6.1 96 0.3 ESE 4 6 2 3 1021.5 - 0.0
31/03:30am 7.2 5.1 6.6 96 0.3 SSW 7 11 4 6 1021.5 - 0.0
31/03:00am 7.2 5.1 6.5 95 0.3 SW 7 11 4 6 1021.6 1021.5 0.0
31/02:30am 6.1 3.6 4.9 92 0.5 SSW 7 11 4 6 1021.7 - 0.0
31/02:00am 8.1 6.2 6.9 92 0.6 E 6 7 3 4 1022.0 - 0.0
31/01:30am 9.9 8.3 8.7 92 0.6 SE 7 11 4 6 1022.1 - 0.0
31/01:00am 8.5 6.1 7.1 91 0.7 SE 9 13 5 7 1022.3 - 0.0
31/12:30am 8.8 7.1 7.4 91 0.7 SE 6 7 3 4 1022.7 - 0.0
31/12:00am 7.8 5.4 5.3 84 1.1 SSE 7 9 4 5 1022.6 1022.5 0.0
 
Date/Time
CST
Temp
°C
App
Temp
°C
Dew
Point
Rel
Hum
%
Delta-T
°C
Wind Press
QNH
hPa
Press
MSL
hPa
Rain
since 9 am
mm
Dir
 
Spd
km/h
Gust
km/h
Spd
kts
Gust
kts
30/11:30pm 8.8 6.2 6.1 83 1.2 E 9 9 5 5 1022.9 - 0.0
30/11:00pm 10.2 7.9 7.6 84 1.2 E 9 13 5 7 1022.6 - 0.0
30/10:30pm 12.3 9.9 10.0 86 1.2 SE 13 17 7 9 1022.8 - 0.0
30/10:00pm 12.1 9.2 9.7 85 1.2 SSE 15 19 8 10 1022.7 - 0.0
30/09:30pm 12.5 8.9 9.9 84 1.3 SSE 19 20 10 11 1022.5 - 0.0
30/09:00pm 11.8 9.4 8.5 80 1.6 SSE 11 15 6 8 1022.2 1022.1 0.0
30/08:30pm 13.6 10.0 8.4 71 2.6 SSE 17 24 9 13 1022.1 - 0.0
30/08:26pm 12.6 7.4 2.5 50 4.4 SSE 19 24 10 13 1022.1 - 0.0
30/08:00pm 7.3 4.1 0.5 62 2.7 SW 7 9 4 5 1021.7 - 0.0
30/07:30pm 8.1 5.4 0.3 58 3.1 WNW 4 6 2 3 1021.2 - 0.0
30/07:00pm 9.7 6.4 0.3 52 3.8 N 7 11 4 6 1020.9 - 0.0
30/06:30pm 11.0 6.2 0.4 48 4.3 NNE 15 17 8 9 1020.6 - 0.0
30/06:00pm 11.5 7.1 0.3 46 4.6 N 13 15 7 8 1020.5 1020.4 0.0
30/05:30pm 15.7 11.7 0.3 35 6.6 N 11 13 6 7 1020.3 - 0.0
30/05:00pm 18.0 13.1 -0.3 29 7.9 N 15 19 8 10 1020.3 - 0.0
30/04:30pm 18.5 12.8 -0.8 27 8.3 NW 19 28 10 15 1020.0 - 0.0
30/04:00pm 18.8 12.5 -1.1 26 8.5 NNW 22 28 12 15 1019.7 - 0.0
30/03:30pm 18.9 12.4 0.0 28 8.3 N 24 32 13 17 1019.6 - 0.0
30/03:00pm 19.0 10.7 -0.4 27 8.4 N 33 41 18 22 1019.5 1019.4 0.0
30/02:30pm 18.8 10.7 -0.1 28 8.2 N 32 43 17 23 1019.6 - 0.0
30/02:00pm 18.2 9.9 -0.1 29 7.9 N 33 43 18 23 1020.2 - 0.0
30/01:30pm 16.3 8.0 -0.4 32 7.1 N 33 41 18 22 1021.0 - 0.0
30/01:00pm 16.0 7.9 -0.2 33 6.9 N 32 43 17 23 1021.6 - 0.0
30/12:30pm 15.3 7.0 -0.1 35 6.5 N 33 43 18 23 1022.2 - 0.0
30/12:00pm 15.3 7.2 0.7 37 6.2 N 33 44 18 24 1022.5 1022.4 0.0
30/11:30am 12.9 4.7 0.6 43 5.2 N 33 41 18 22 1023.1 - 0.0
30/11:00am 11.7 3.1 0.5 46 4.6 N 35 43 19 23 1023.2 - 0.0
30/10:30am 11.6 3.4 0.4 46 4.6 N 33 44 18 24 1023.2 - 0.0
30/10:00am 11.5 3.3 0.3 46 4.6 N 33 44 18 24 1023.6 - 0.0
30/09:37am 11.5 3.9 0.3 46 4.6 N 30 50 16 27 1023.6 - 0.0
30/09:30am 11.6 4.4 0.4 46 4.6 N 28 39 15 21 1024.1 - 0.0
30/09:00am 10.4 3.1 0.2 49 4.1 N 28 35 15 19 1023.8 1023.7 0.0
30/08:30am 9.8 3.7 0.4 52 3.8 N 22 32 12 17 1024.0 - 0.0
30/08:00am 9.5 3.4 0.1 52 3.8 N 22 33 12 18 1023.9 - 0.0
30/07:30am 8.9 3.1 -0.1 53 3.6 NNW 20 28 11 15 1023.3 - 0.0
30/07:00am 8.4 2.6 0.1 56 3.3 NNW 20 30 11 16 1022.9 - 0.0
30/06:30am 7.7 2.9 0.2 59 3.0 NW 15 20 8 11 1023.5 - 0.0
30/06:00am 7.4 2.6 0.2 60 2.8 NW 15 20 8 11 1023.4 1023.3 0.0
30/05:30am 7.2 2.0 0.4 62 2.7 WNW 17 20 9 11 1023.3 - 0.0
30/05:00am 7.1 1.9 -0.1 60 2.8 NW 17 22 9 12 1023.3 - 0.0
30/04:30am 6.6 0.8 -0.4 61 2.7 NNW 20 26 11 14 1023.1 - 0.0
30/04:00am 5.5 -0.2 -0.5 65 2.3 NW 19 22 10 12 1023.3 - 0.0
30/03:30am 6.0 0.3 -0.5 63 2.5 NNW 19 24 10 13 1023.8 - 0.0
30/03:00am 6.9 1.1 -0.3 60 2.8 NW 20 24 11 13 1024.2 1024.1 0.0
30/02:30am 7.0 1.4 -0.2 60 2.8 NW 19 22 10 12 1024.5 - 0.0
30/02:00am 7.0 1.2 -0.4 59 2.8 NNW 20 24 11 13 1024.7 - 0.0
30/01:30am 7.6 1.4 -0.6 56 3.2 NNW 22 28 12 15 1024.8 - 0.0
30/01:00am 7.3 1.6 -0.4 58 3.0 NNW 19 24 10 13 1024.9 - 0.0
30/12:30am 6.8 1.5 -0.4 60 2.8 NNW 17 20 9 11 1025.0 - 0.0
30/12:00am 6.7 0.9 -0.3 61 2.7 N 20 24 11 13 1025.0 1024.9 0.0
 
Date/Time
CST
Temp
°C
App
Temp
°C
Dew
Point
Rel
Hum
%
Delta-T
°C
Wind Press
QNH
hPa
Press
MSL
hPa
Rain
since 9 am
mm
Dir
 
Spd
km/h
Gust
km/h
Spd
kts
Gust
kts
29/11:30pm 6.4 1.1 -0.3 62 2.6 N 17 20 9 11 1025.3 - 0.0
29/11:00pm 5.8 1.0 0.0 66 2.2 N 15 19 8 10 1025.6 - 0.0
29/10:30pm 5.9 2.1 -0.6 63 2.5 NNW 9 11 5 6 1025.9 - 0.0
29/10:00pm 6.3 3.0 -0.2 63 2.5 NNW 7 11 4 6 1026.0 - 0.0
29/09:30pm 6.3 2.2 -0.2 63 2.5 N 11 13 6 7 1026.3 - 0.0
29/09:00pm 6.0 1.5 -0.1 65 2.3 N 13 17 7 9 1026.5 1026.4 0.0
29/08:30pm 6.6 2.2 0.1 63 2.5 N 13 17 7 9 1026.7 - 0.0
29/08:00pm 6.9 1.7 0.4 63 2.6 N 17 20 9 11 1026.6 - 0.0
29/07:30pm 6.6 2.2 0.1 63 2.5 N 13 15 7 8 1026.9 - 0.0

Other Formats:

Comma delimited format used in spreadsheet applications
http://www.bom.gov.au/fwo/IDS60801/IDS60801.95666.axf

JavaScript Object Notation format (JSON) in row-major order
http://www.bom.gov.au/fwo/IDS60801/IDS60801.95666.json